Airfield :
LOGIN :

Register | Disclaimer

   EN    FR    IT 

 










Legend :    VFR   Marginal VFR   IFR   Intensive IFR   Very Intensive IFR
Visi :
Ceiling :
>= 8 km
>= 3000ft
5 to 8 km
1000 to 3000 ft
1500m to 5 km
500 to 1000 ft
800 to 1500m
200 to 500 ft
< 800m
< 200 ft
Symbols :   Thunderstorms  Fog  Heavy snow  Heavy precipitations  Wind > 20 kt
SIGMETs :     Misc.  Thunderstorms  Icing  Turbulence  Mountain Waves  Volcanic Ashes







- Airport Elevation : 277 ft
- IATA code : JER
- Download approach charts


EGJJ - Jersey

CURRENT METAR :
  • 160720Z 19013KT 9999 FEW012 BKN030 07/05 Q1011

EXPIRED METARs :
  • 160650Z 19015KT 9999 FEW014 SCT017 BKN020 07/05 Q1011
  • 160620Z 20013KT 9999 FEW014 BKN020 07/04 Q1012
  • 160550Z 20013KT 9999 BKN013 07/05 Q1012
  • 160520Z AUTO 20014KT 9999 FEW014/// BKN018/// OVC021/// 07/05 Q1012
  • 160450Z AUTO 20012KT 9999 SCT014/// BKN017/// OVC019/// 07/05 Q1013

TAF TAF EGJJ
Valid from the 16 at 06:00 until the 16 at 15:00 UTC


160501Z 1606/1615 22014KT 9999 SCT013 BKN016
PROB40
TEMPO 1606/1609 20015G26KT 7000 -RADZ BKN013
BECMG 1609/1611 22015G26KT 6000 RADZ BKN009
PROB30
TEMPO 1611/1615 9999 NSW SCT009 BKN013
ATIS : +44 1534 498 073
No reported NOTAMs for that airfield.



MET'MAP, your aeronautical weather chart ! - Copyright ORBIFLY December 2007 - Disclaimer

ORBIFLY MET'MAP TEAM :

Programming & Development : Alexandra Zaïnal
Concept & Development : Baudouin d'Aumeries
Co-Development & Prog : Marc-Olivier Méhu
Technical & hardware support : Manuel Goepfert

Contact : metmap@orbifly.com




SOURCES & CREDITS :

   NOAA